Wadena, MN

3:57 PM CST on January 29, 2015 (GMT -0600)
Long Prairie | Change Station
CLOSE
Current Station
Airport
Location: Long Prairie,
Elevation: 1332 ft
Nearby Weather Stations

Elev 1332 ft 45.90 °N, 94.87 °W | Updated 1 minute ago

Partly Cloudy
Partly Cloudy
19 °F
Feels Like 6 °F
N
14
Wind Variable Wind from WNW
Gusts 24 mph

Today
High -- | Low -- °F
--% Chance of Precip.
Yesterday
High -- | Low -- °F
Precip. -- in
7:47 AM 5:20 PM
Waxing Gibbous, 77% visible
Pressure 30.39 in
Visibility 10.0 miles
Clouds Clear
Windchill 6 °F
Dew Point 10 °F
Humidity 68%
Rainfall 0.00 in
Snow Depth Not available.
UV 1 out of 12
Pollen .10 out of 12
Air Quality Not available.
Flu Activity Not available.
METAR K14Y 292156Z AUTO 30012G21KT 10SM CLR M07/M12 A3039 RMK AO2

More Conditions Fewer Conditions

Pressure 30.39 in
Visibility 10.0 miles
Clouds Clear
Windchill 6 °F
Dew Point 10 °F
Humidity 68%
Rainfall 0.00 in
Snow Depth Not available.
UV 1 out of 12
Pollen .10 out of 12
Air Quality Not available.
Flu Activity Not available.
METAR K14Y 292156Z AUTO 30012G21KT 10SM CLR M07/M12 A3039 RMK AO2

More Conditions Fewer Conditions

10-Day Weather Forecast

Almanac

Astronomy

Jan. 29, 2015 Rise Set
Actual Time
Civil Twilight
Nautical Twilight
Astronomical Twilight
Moon
Length of Visible Light
Length of Day
Tomorrow will be .
, % of the Moon is Illuminated

Today's Extremes

State Highs State Lows

Community

WunderPhotos

Upload Photos

1,791,615 photos uploaded!

WunderBlogs® & News

Nearby

Air Quality

  Air Quality AQ Index Pollutant
Not available.

Snow Depth

Station Depth Elevation

Earthquake Activity

City Distance Mag. Time & Date
Minimum magnitude displayed is 2.5.

Coastal Water Temperatures

Place Temperature

Nearby Weather Stations